Time;durP1;ratioP1;P1;durP2;ratioP2;P2;SDS_P1;SDS_P2;PMS_P1;PMS_P2;Temp;Humidity;BMP_temperature;BMP_pressure;BME280_temperature;BME280_humidity;BME280_pressure;Samples;Min_cycle;Max_cycle;Signal;HPM_P1;HPM_P2
2021/10/06 05:06:24;;;;;;;1.63;0.77;;;;;;;;;;1038016;28;99852;-52
2021/10/06 05:06:56;;;;;;;5.35;1.23;;;;;;;;;;1035482;28;100573;-53
2021/10/06 05:07:27;;;;;;;5.10;1.10;;;;;;;;;;1036547;28;100090;-53
2021/10/06 05:07:58;;;;;;;3.22;1.23;;;;;;;;;;1035588;28;100538;-51
2021/10/06 05:08:28;;;;;;;4.80;1.40;;;;;;;;;;1036995;28;99936;-51
2021/10/06 05:09:01;;;;;;;6.15;1.05;;;;;;;;;;1031305;28;100944;-48
2021/10/06 05:09:31;;;;;;;3.30;1.30;;;;;;;;;;1032345;28;100145;-48
2021/10/06 05:10:02;;;;;;;4.60;1.17;;;;;;;;;;1030658;28;101526;-50
2021/10/06 05:10:34;;;;;;;5.30;1.45;;;;;;;;;;1031710;28;100122;-47
2021/10/06 05:11:04;;;;;;;6.80;1.30;;;;;;;;;;1031412;28;100848;-48
2021/10/06 05:11:35;;;;;;;4.95;1.42;;;;;;;;;;1036693;28;100245;-50
2021/10/06 05:12:06;;;;;;;2.85;1.30;;;;;;;;;;1035574;28;100733;-48
2021/10/06 05:12:37;;;;;;;4.75;1.10;;;;;;;;;;1033174;28;99926;-50
2021/10/06 05:13:08;;;;;;;4.60;1.23;;;;;;;;;;1031548;28;100372;-49
2021/10/06 05:13:39;;;;;;;3.05;1.40;;;;;;;;;;1032467;28;100153;-48
2021/10/06 05:14:10;;;;;;;2.72;1.30;;;;;;;;;;1031155;28;100452;-49
2021/10/06 05:14:41;;;;;;;4.93;1.20;;;;;;;;;;1033396;28;100145;-50
2021/10/06 05:15:12;;;;;;;3.38;1.20;;;;;;;;;;1032215;28;100502;-50
2021/10/06 05:15:43;;;;;;;2.25;1.20;;;;;;;;;;1035154;28;100230;-49
2021/10/06 05:16:14;;;;;;;6.10;1.35;;;;;;;;;;1035419;28;101457;-50
2021/10/06 05:16:44;;;;;;;5.90;1.10;;;;;;;;;;1034612;28;100121;-49
2021/10/06 05:17:15;;;;;;;5.18;1.63;;;;;;;;;;1031437;28;100445;-49
2021/10/06 05:17:46;;;;;;;3.40;1.15;;;;;;;;;;1032671;28;100019;-48
2021/10/06 05:18:17;;;;;;;5.10;1.23;;;;;;;;;;1031116;28;100459;-49
2021/10/06 05:18:47;;;;;;;2.97;1.40;;;;;;;;;;1032369;28;99892;-49
2021/10/06 05:19:19;;;;;;;3.13;1.30;;;;;;;;;;1030870;28;101784;-50
2021/10/06 05:19:50;;;;;;;4.53;1.35;;;;;;;;;;1032185;28;99887;-49
2021/10/06 05:20:21;;;;;;;4.43;1.45;;;;;;;;;;1030708;28;101578;-53
2021/10/06 05:20:52;;;;;;;3.78;1.17;;;;;;;;;;1032311;28;99855;-48
2021/10/06 05:21:22;;;;;;;3.40;1.40;;;;;;;;;;1030796;28;101316;-49
2021/10/06 05:21:53;;;;;;;3.47;1.00;;;;;;;;;;1032418;28;99947;-48
2021/10/06 05:22:24;;;;;;;5.75;1.60;;;;;;;;;;1033786;28;100440;-49
2021/10/06 05:22:55;;;;;;;3.63;1.40;;;;;;;;;;1035364;28;100213;-50
2021/10/06 05:23:25;;;;;;;3.42;1.52;;;;;;;;;;1035300;28;100502;-49
2021/10/06 05:23:56;;;;;;;4.80;1.45;;;;;;;;;;1034177;28;100126;-49
2021/10/06 05:24:27;;;;;;;4.25;1.42;;;;;;;;;;1035358;28;100376;-50
2021/10/06 05:24:58;;;;;;;6.03;1.50;;;;;;;;;;1035048;28;99905;-54
2021/10/06 05:25:28;;;;;;;8.13;1.75;;;;;;;;;;1035178;28;100424;-50
2021/10/06 05:25:59;;;;;;;3.63;1.25;;;;;;;;;;1036551;28;99247;-53
2021/10/06 05:26:30;;;;;;;4.30;1.40;;;;;;;;;;1035189;28;100386;-51
2021/10/06 05:27:01;;;;;;;6.15;1.40;;;;;;;;;;1032692;28;100302;-53
2021/10/06 05:27:33;;;;;;;2.78;1.20;;;;;;;;;;1034074;28;100335;-53
2021/10/06 05:28:04;;;;;;;2.45;1.33;;;;;;;;;;1036144;28;100059;-53
2021/10/06 05:28:35;;;;;;;4.25;1.30;;;;;;;;;;1035569;28;100653;-51
2021/10/06 05:29:06;;;;;;;4.35;1.42;;;;;;;;;;1035121;28;101335;-53
2021/10/06 05:29:36;;;;;;;5.13;1.50;;;;;;;;;;1034874;28;101379;-53
2021/10/06 05:30:09;;;;;;;3.28;1.33;;;;;;;;;;1030516;28;99904;-51
2021/10/06 05:30:42;;;;;;;3.15;1.60;;;;;;;;;;1031280;28;101129;-52
2021/10/06 05:31:13;;;;;;;3.03;1.33;;;;;;;;;;1034095;28;100053;-51
2021/10/06 05:31:44;;;;;;;5.53;1.80;;;;;;;;;;1033878;28;100625;-51
2021/10/06 05:32:14;;;;;;;4.07;1.65;;;;;;;;;;1037157;28;100120;-51
2021/10/06 05:32:49;;;;;;;6.43;1.77;;;;;;;;;;1033044;28;100459;-50
2021/10/06 05:33:20;;;;;;;2.25;1.33;;;;;;;;;;1033175;28;100301;-49
2021/10/06 05:33:51;;;;;;;3.65;1.17;;;;;;;;;;1034084;28;100451;-53
2021/10/06 05:34:22;;;;;;;3.38;1.80;;;;;;;;;;1032626;28;99865;-51
2021/10/06 05:34:53;;;;;;;6.68;1.40;;;;;;;;;;1035641;28;100604;-48
2021/10/06 05:35:24;;;;;;;3.38;1.50;;;;;;;;;;1036806;28;99828;-48
2021/10/06 05:35:54;;;;;;;3.50;1.50;;;;;;;;;;1031239;28;100180;-49
2021/10/06 05:36:25;;;;;;;7.03;1.75;;;;;;;;;;1032543;28;99910;-49
2021/10/06 05:36:57;;;;;;;3.35;1.60;;;;;;;;;;1031417;28;100436;-48
2021/10/06 05:37:28;;;;;;;5.00;1.67;;;;;;;;;;1032806;28;99894;-49
2021/10/06 05:37:59;;;;;;;3.38;1.40;;;;;;;;;;1031368;28;100391;-49
2021/10/06 05:38:30;;;;;;;5.35;1.50;;;;;;;;;;1032578;28;99777;-49
2021/10/06 05:39:00;;;;;;;2.65;1.50;;;;;;;;;;1031478;28;102064;-47
2021/10/06 05:39:31;;;;;;;5.03;1.48;;;;;;;;;;1035993;28;99882;-48
2021/10/06 05:40:04;;;;;;;5.53;1.63;;;;;;;;;;1035218;28;100794;-48
2021/10/06 05:40:35;;;;;;;3.63;1.70;;;;;;;;;;1032679;28;99900;-48
2021/10/06 05:41:05;;;;;;;6.93;1.55;;;;;;;;;;1035224;28;100183;-45
2021/10/06 05:41:36;;;;;;;5.47;1.88;;;;;;;;;;1036718;28;100076;-45
2021/10/06 05:42:07;;;;;;;5.53;1.75;;;;;;;;;;1031528;28;100386;-45
2021/10/06 05:42:38;;;;;;;4.35;1.70;;;;;;;;;;1032718;28;100054;-48
2021/10/06 05:43:12;;;;;;;2.80;1.42;;;;;;;;;;1033900;28;100464;-49
2021/10/06 05:43:43;;;;;;;3.13;1.60;;;;;;;;;;1036645;28;100035;-49
2021/10/06 05:44:14;;;;;;;4.72;1.90;;;;;;;;;;1035184;28;100444;-49
2021/10/06 05:44:46;;;;;;;3.53;1.63;;;;;;;;;;1036162;28;100067;-52
2021/10/06 05:45:17;;;;;;;4.35;1.70;;;;;;;;;;1035118;28;100456;-48
2021/10/06 05:45:48;;;;;;;7.68;2.10;;;;;;;;;;1032510;28;100322;-48
2021/10/06 05:46:19;;;;;;;4.53;1.65;;;;;;;;;;1034898;28;102222;-48
2021/10/06 05:46:50;;;;;;;5.55;2.13;;;;;;;;;;1036202;28;100084;-47
2021/10/06 05:47:21;;;;;;;4.60;1.60;;;;;;;;;;1035204;28;100411;-48
2021/10/06 05:47:52;;;;;;;7.82;2.08;;;;;;;;;;1036597;28;99913;-48
2021/10/06 05:48:23;;;;;;;3.95;1.73;;;;;;;;;;1031057;28;100532;-49
2021/10/06 05:48:53;;;;;;;5.97;1.70;;;;;;;;;;1032336;28;99492;-48
2021/10/06 05:49:24;;;;;;;6.53;1.98;;;;;;;;;;1031333;28;100567;-47
2021/10/06 05:49:55;;;;;;;4.00;2.00;;;;;;;;;;1036651;28;99901;-46
2021/10/06 05:50:26;;;;;;;3.17;1.60;;;;;;;;;;1035276;28;100545;-46
2021/10/06 05:50:56;;;;;;;4.68;1.60;;;;;;;;;;1036400;28;100218;-46
2021/10/06 05:51:27;;;;;;;6.88;1.85;;;;;;;;;;1035209;28;100476;-46
2021/10/06 05:51:58;;;;;;;3.83;1.67;;;;;;;;;;1036584;28;99952;-46
2021/10/06 05:52:29;;;;;;;3.95;1.52;;;;;;;;;;1030508;28;100324;-45
2021/10/06 05:53:01;;;;;;;3.45;1.58;;;;;;;;;;1028108;28;100189;-46
2021/10/06 05:53:31;;;;;;;3.88;1.60;;;;;;;;;;1026540;28;101852;-46
2021/10/06 05:54:02;;;;;;;3.83;1.50;;;;;;;;;;1028218;28;99947;-46
2021/10/06 05:54:34;;;;;;;3.72;1.70;;;;;;;;;;1031005;28;100396;-46
2021/10/06 05:55:05;;;;;;;3.88;1.95;;;;;;;;;;1032421;28;100010;-45
2021/10/06 05:55:36;;;;;;;5.07;1.90;;;;;;;;;;1034936;28;101414;-46
2021/10/06 05:56:07;;;;;;;2.72;1.67;;;;;;;;;;1036204;28;99965;-47
2021/10/06 05:56:39;;;;;;;9.38;2.22;;;;;;;;;;1035165;28;100705;-48
2021/10/06 05:57:10;;;;;;;5.68;2.08;;;;;;;;;;1036312;28;99881;-47
2021/10/06 05:57:40;;;;;;;6.40;2.20;;;;;;;;;;1034906;28;101374;-48
2021/10/06 05:58:13;;;;;;;6.47;2.42;;;;;;;;;;1036531;28;99873;-47
2021/10/06 05:58:44;;;;;;;7.63;2.78;;;;;;;;;;1035275;28;100900;-47
2021/10/06 05:59:14;;;;;;;7.65;2.85;;;;;;;;;;1036158;28;99916;-47
2021/10/06 05:59:45;;;;;;;10.05;2.50;;;;;;;;;;1035298;28;100472;-46
2021/10/06 06:00:16;;;;;;;7.85;2.50;;;;;;;;;;1036205;28;100059;-46
2021/10/06 06:00:47;;;;;;;4.22;1.70;;;;;;;;;;1035248;28;100499;-46
2021/10/06 06:01:18;;;;;;;6.88;1.92;;;;;;;;;;1039592;28;99936;-47
2021/10/06 06:01:49;;;;;;;4.55;2.00;;;;;;;;;;1038915;28;100354;-46
2021/10/06 06:02:20;;;;;;;2.60;1.58;;;;;;;;;;1035976;28;100002;-46
2021/10/06 06:02:50;;;;;;;4.13;1.85;;;;;;;;;;1034969;28;100436;-47
2021/10/06 06:03:21;;;;;;;3.97;1.65;;;;;;;;;;1035702;28;100125;-48
2021/10/06 06:03:53;;;;;;;3.28;1.70;;;;;;;;;;1035070;28;100433;-48
2021/10/06 06:04:25;;;;;;;6.35;2.17;;;;;;;;;;1039693;28;100110;-54
2021/10/06 06:04:56;;;;;;;6.55;1.95;;;;;;;;;;1036229;28;100610;-54
2021/10/06 06:05:27;;;;;;;7.40;1.92;;;;;;;;;;1040117;28;100287;-53
2021/10/06 06:05:57;;;;;;;4.90;1.63;;;;;;;;;;1034360;28;100453;-49
2021/10/06 06:06:28;;;;;;;4.70;1.80;;;;;;;;;;1036128;28;100221;-50
2021/10/06 06:06:59;;;;;;;3.28;1.33;;;;;;;;;;1038779;28;100417;-55
2021/10/06 06:07:30;;;;;;;5.35;1.65;;;;;;;;;;1040285;28;100058;-50
2021/10/06 06:08:01;;;;;;;5.57;2.00;;;;;;;;;;1038725;28;100441;-54
2021/10/06 06:08:32;;;;;;;6.90;2.10;;;;;;;;;;1038485;28;100182;-52
2021/10/06 06:09:03;;;;;;;10.68;1.88;;;;;;;;;;1036653;28;100758;-48
2021/10/06 06:09:34;;;;;;;5.60;1.77;;;;;;;;;;1037153;28;99896;-49
2021/10/06 06:10:05;;;;;;;8.90;1.90;;;;;;;;;;1037542;28;100437;-52
2021/10/06 06:10:36;;;;;;;11.35;2.45;;;;;;;;;;1035751;28;100286;-52
2021/10/06 06:11:07;;;;;;;7.78;2.08;;;;;;;;;;1032014;28;100445;-50
2021/10/06 06:11:38;;;;;;;4.95;1.65;;;;;;;;;;1031835;28;99907;-50
2021/10/06 06:12:12;;;;;;;6.57;1.98;;;;;;;;;;1030655;28;101373;-48
2021/10/06 06:12:43;;;;;;;10.57;2.00;;;;;;;;;;1035978;28;99880;-52
2021/10/06 06:13:13;;;;;;;7.07;1.80;;;;;;;;;;1034856;28;100373;-51
2021/10/06 06:13:45;;;;;;;5.00;1.85;;;;;;;;;;1036020;28;99876;-53
2021/10/06 06:14:16;;;;;;;8.48;2.17;;;;;;;;;;1034635;28;100191;-52
2021/10/06 06:14:46;;;;;;;5.10;1.95;;;;;;;;;;1035988;28;100100;-48
2021/10/06 06:15:17;;;;;;;5.05;2.20;;;;;;;;;;1034845;28;100335;-50
2021/10/06 06:15:52;;;;;;;8.65;2.08;;;;;;;;;;1035952;28;99835;-48
2021/10/06 06:16:22;;;;;;;6.28;2.13;;;;;;;;;;1030284;28;100704;-51
2021/10/06 06:16:54;;;;;;;5.90;1.80;;;;;;;;;;1031724;28;99862;-52
2021/10/06 06:17:24;;;;;;;6.95;2.00;;;;;;;;;;1030404;28;100421;-53
2021/10/06 06:17:55;;;;;;;5.90;2.10;;;;;;;;;;1029327;28;99817;-51
2021/10/06 06:18:26;;;;;;;9.55;1.77;;;;;;;;;;1031685;28;100436;-53
2021/10/06 06:18:57;;;;;;;4.50;1.88;;;;;;;;;;1033334;28;100036;-51
2021/10/06 06:19:28;;;;;;;8.45;2.22;;;;;;;;;;1031836;28;100260;-52
2021/10/06 06:19:59;;;;;;;6.03;2.03;;;;;;;;;;1033353;28;99927;-55
2021/10/06 06:20:30;;;;;;;7.35;1.70;;;;;;;;;;1027830;28;100614;-52
2021/10/06 06:21:01;;;;;;;8.55;2.03;;;;;;;;;;1029096;28;99924;-51
2021/10/06 06:21:32;;;;;;;7.25;2.08;;;;;;;;;;1028753;28;100656;-55
2021/10/06 06:22:03;;;;;;;6.68;1.88;;;;;;;;;;1026727;28;100484;-54
2021/10/06 06:22:34;;;;;;;9.45;2.10;;;;;;;;;;1030272;28;100554;-54
2021/10/06 06:23:05;;;;;;;6.15;2.10;;;;;;;;;;1033296;28;100004;-55
2021/10/06 06:23:36;;;;;;;8.23;2.05;;;;;;;;;;1030055;28;100482;-51
2021/10/06 06:24:07;;;;;;;4.93;1.95;;;;;;;;;;1033294;28;100251;-55
2021/10/06 06:24:37;;;;;;;8.02;2.40;;;;;;;;;;1031764;28;101234;-53
2021/10/06 06:25:10;;;;;;;6.40;2.03;;;;;;;;;;1029313;28;101125;-56
2021/10/06 06:25:41;;;;;;;5.80;1.95;;;;;;;;;;1031117;28;100640;-53
2021/10/06 06:26:12;;;;;;;3.80;1.75;;;;;;;;;;1032295;28;100072;-55
2021/10/06 06:26:43;;;;;;;4.20;2.10;;;;;;;;;;1031398;28;101309;-56
2021/10/06 06:27:13;;;;;;;9.32;2.85;;;;;;;;;;1035558;28;99930;-52
2021/10/06 06:27:44;;;;;;;5.30;2.20;;;;;;;;;;1032433;28;101302;-52
2021/10/06 06:28:15;;;;;;;7.85;2.20;;;;;;;;;;1036707;28;99928;-54
2021/10/06 06:28:47;;;;;;;4.28;1.83;;;;;;;;;;1032059;28;101558;-54
2021/10/06 06:29:18;;;;;;;5.65;2.35;;;;;;;;;;1033227;28;99885;-51
2021/10/06 06:29:48;;;;;;;10.88;2.15;;;;;;;;;;1035356;28;100591;-53
2021/10/06 06:30:19;;;;;;;9.65;2.40;;;;;;;;;;1037087;28;99950;-49
2021/10/06 06:30:50;;;;;;;5.20;2.30;;;;;;;;;;1035694;28;102010;-49
2021/10/06 06:31:21;;;;;;;13.63;2.22;;;;;;;;;;1037094;28;100017;-53
2021/10/06 06:31:52;;;;;;;7.28;2.17;;;;;;;;;;1034678;28;100654;-58
2021/10/06 06:32:23;;;;;;;8.80;1.90;;;;;;;;;;1034929;28;99916;-57
2021/10/06 06:32:53;;;;;;;5.18;2.08;;;;;;;;;;1028939;28;100401;-57
2021/10/06 06:33:24;;;;;;;6.07;2.20;;;;;;;;;;1017699;28;99905;-58
2021/10/06 06:33:55;;;;;;;8.95;2.70;;;;;;;;;;1015499;28;100565;-49
2021/10/06 06:34:26;;;;;;;5.93;2.40;;;;;;;;;;1021220;28;100348;-50
2021/10/06 06:34:57;;;;;;;9.05;2.28;;;;;;;;;;1023671;28;100762;-50
2021/10/06 06:35:28;;;;;;;10.52;2.35;;;;;;;;;;1033760;28;100047;-49
2021/10/06 06:35:59;;;;;;;8.55;2.33;;;;;;;;;;1031832;28;100653;-53
2021/10/06 06:36:30;;;;;;;9.32;2.10;;;;;;;;;;1033143;28;100026;-48
2021/10/06 06:37:01;;;;;;;8.45;1.90;;;;;;;;;;1031650;28;101391;-48
2021/10/06 06:37:32;;;;;;;7.22;2.17;;;;;;;;;;1031577;28;100041;-49
2021/10/06 06:38:03;;;;;;;6.38;2.22;;;;;;;;;;1027937;28;100409;-49
2021/10/06 06:38:34;;;;;;;4.15;2.33;;;;;;;;;;1028686;28;100074;-51
2021/10/06 06:39:04;;;;;;;5.57;2.30;;;;;;;;;;1027624;28;100357;-48
2021/10/06 06:39:35;;;;;;;7.88;2.22;;;;;;;;;;1029366;28;100222;-49
2021/10/06 06:40:07;;;;;;;8.50;2.22;;;;;;;;;;1031758;28;101642;-53
2021/10/06 06:40:41;;;;;;;9.13;2.33;;;;;;;;;;1033335;28;100102;-49
2021/10/06 06:41:11;;;;;;;8.00;2.03;;;;;;;;;;1031350;28;103023;-49
2021/10/06 06:41:42;;;;;;;7.50;2.15;;;;;;;;;;1032711;28;100275;-48
2021/10/06 06:42:13;;;;;;;5.32;2.45;;;;;;;;;;1031776;28;101411;-49
2021/10/06 06:42:44;;;;;;;4.22;2.20;;;;;;;;;;1028759;28;99927;-50
2021/10/06 06:43:15;;;;;;;7.82;2.25;;;;;;;;;;1027399;28;100799;-49
2021/10/06 06:43:45;;;;;;;10.88;2.40;;;;;;;;;;1029082;28;100122;-48
2021/10/06 06:44:16;;;;;;;6.05;2.58;;;;;;;;;;1023628;28;103017;-53
2021/10/06 06:44:47;;;;;;;4.80;2.15;;;;;;;;;;1028691;28;100274;-51
2021/10/06 06:45:18;;;;;;;9.63;2.83;;;;;;;;;;1023464;28;101990;-49
2021/10/06 06:45:49;;;;;;;6.72;2.20;;;;;;;;;;1025214;28;99959;-47
2021/10/06 06:46:20;;;;;;;3.58;2.38;;;;;;;;;;1027772;28;100450;-48
2021/10/06 06:46:51;;;;;;;5.40;2.30;;;;;;;;;;1024634;28;100334;-50
2021/10/06 06:47:22;;;;;;;6.38;2.13;;;;;;;;;;1027561;28;100438;-50
2021/10/06 06:47:52;;;;;;;7.30;2.47;;;;;;;;;;1029037;28;100001;-49
2021/10/06 06:48:23;;;;;;;4.78;1.98;;;;;;;;;;1027760;28;100234;-48
2021/10/06 06:48:54;;;;;;;5.43;2.42;;;;;;;;;;1029080;28;100148;-52
2021/10/06 06:49:25;;;;;;;10.20;2.35;;;;;;;;;;1023342;28;101426;-49
2021/10/06 06:49:56;;;;;;;4.95;2.13;;;;;;;;;;1025018;28;99876;-49
2021/10/06 06:50:27;;;;;;;9.63;2.30;;;;;;;;;;1019992;28;100413;-48
2021/10/06 06:50:59;;;;;;;4.75;2.17;;;;;;;;;;1025159;28;100087;-49
2021/10/06 06:51:30;;;;;;;4.75;2.13;;;;;;;;;;1027544;28;100692;-49
2021/10/06 06:52:00;;;;;;;6.10;2.05;;;;;;;;;;1028963;28;100389;-48
2021/10/06 06:52:31;;;;;;;6.35;2.30;;;;;;;;;;1031666;28;100466;-48
2021/10/06 06:53:02;;;;;;;4.95;2.47;;;;;;;;;;1032947;28;100053;-48
2021/10/06 06:53:33;;;;;;;9.88;2.40;;;;;;;;;;1027485;28;100522;-52
2021/10/06 06:54:04;;;;;;;9.00;2.50;;;;;;;;;;1021111;28;99952;-48
2021/10/06 06:54:35;;;;;;;7.70;2.42;;;;;;;;;;1025916;28;100521;-49
2021/10/06 06:55:06;;;;;;;6.40;2.30;;;;;;;;;;1025173;28;99948;-51
2021/10/06 06:55:37;;;;;;;5.07;2.58;;;;;;;;;;1023741;28;100229;-53
2021/10/06 06:56:07;;;;;;;9.15;2.70;;;;;;;;;;1024557;28;100035;-48
2021/10/06 06:56:39;;;;;;;7.82;2.75;;;;;;;;;;1019685;28;100474;-52
2021/10/06 06:57:10;;;;;;;11.20;2.58;;;;;;;;;;1022720;28;100234;-53
2021/10/06 06:57:41;;;;;;;5.13;2.53;;;;;;;;;;1024790;28;100367;-48
2021/10/06 06:58:12;;;;;;;5.03;2.47;;;;;;;;;;1033279;28;99407;-48
2021/10/06 06:58:42;;;;;;;6.20;2.33;;;;;;;;;;1027740;28;100566;-48
2021/10/06 06:59:13;;;;;;;22.40;2.88;;;;;;;;;;1028847;28;99924;-48
2021/10/06 06:59:44;;;;;;;8.52;2.45;;;;;;;;;;1026689;28;101627;-51
2021/10/06 07:00:15;;;;;;;6.80;2.50;;;;;;;;;;1028352;28;100049;-48
2021/10/06 07:00:46;;;;;;;9.63;2.67;;;;;;;;;;1031316;28;100515;-48
2021/10/06 07:01:17;;;;;;;8.13;2.75;;;;;;;;;;1031930;28;100145;-48
2021/10/06 07:01:48;;;;;;;7.53;2.53;;;;;;;;;;1030817;28;101486;-49
2021/10/06 07:02:19;;;;;;;7.22;2.35;;;;;;;;;;1032851;28;100033;-51
2021/10/06 07:02:49;;;;;;;6.45;2.45;;;;;;;;;;1023005;28;100548;-49
2021/10/06 07:03:20;;;;;;;8.57;2.50;;;;;;;;;;1024894;28;100005;-50
2021/10/06 07:03:51;;;;;;;8.85;2.80;;;;;;;;;;1022946;28;101741;-49
2021/10/06 07:04:22;;;;;;;13.45;2.92;;;;;;;;;;1024735;28;99937;-49
2021/10/06 07:04:53;;;;;;;9.40;2.95;;;;;;;;;;1027727;28;101520;-48
2021/10/06 07:05:23;;;;;;;10.57;2.80;;;;;;;;;;1033264;28;100090;-48
2021/10/06 07:05:54;;;;;;;9.27;2.22;;;;;;;;;;1031393;28;100438;-49
2021/10/06 07:06:27;;;;;;;11.43;2.40;;;;;;;;;;1033013;28;100219;-49
2021/10/06 07:06:58;;;;;;;12.82;2.65;;;;;;;;;;1027408;28;100633;-50
2021/10/06 07:07:30;;;;;;;6.78;2.53;;;;;;;;;;1028723;28;99315;-52
2021/10/06 07:08:02;;;;;;;7.82;2.58;;;;;;;;;;1026760;28;100534;-48
2021/10/06 07:08:33;;;;;;;8.32;3.05;;;;;;;;;;1028775;28;100085;-53
2021/10/06 07:09:05;;;;;;;8.43;2.60;;;;;;;;;;1026759;28;103352;-49
2021/10/06 07:09:36;;;;;;;6.70;2.80;;;;;;;;;;1028443;28;100052;-48
2021/10/06 07:10:07;;;;;;;9.00;2.67;;;;;;;;;;1027032;28;100662;-52
2021/10/06 07:10:38;;;;;;;9.15;2.88;;;;;;;;;;1028558;28;100359;-50
2021/10/06 07:11:09;;;;;;;7.82;2.92;;;;;;;;;;1031211;28;100463;-48
2021/10/06 07:11:40;;;;;;;11.10;3.20;;;;;;;;;;1032764;28;100311;-47
2021/10/06 07:12:11;;;;;;;10.30;2.65;;;;;;;;;;1030993;28;100756;-50
2021/10/06 07:12:42;;;;;;;8.00;2.58;;;;;;;;;;1032321;28;99647;-49
2021/10/06 07:13:12;;;;;;;8.00;2.47;;;;;;;;;;1031355;28;100473;-49
2021/10/06 07:13:43;;;;;;;6.45;2.58;;;;;;;;;;1028453;28;100186;-48
2021/10/06 07:14:14;;;;;;;9.50;2.85;;;;;;;;;;1027058;28;100440;-50
2021/10/06 07:14:46;;;;;;;5.97;2.60;;;;;;;;;;1028644;28;100150;-51
2021/10/06 07:15:17;;;;;;;11.15;3.05;;;;;;;;;;1023501;28;101224;-48
2021/10/06 07:15:48;;;;;;;8.18;3.38;;;;;;;;;;1028914;28;100374;-48
2021/10/06 07:16:18;;;;;;;8.93;3.00;;;;;;;;;;1027459;28;100630;-50
2021/10/06 07:16:49;;;;;;;7.53;2.50;;;;;;;;;;1028632;28;100074;-49
2021/10/06 07:17:20;;;;;;;5.70;2.50;;;;;;;;;;1023172;28;100407;-50
2021/10/06 07:17:51;;;;;;;10.43;2.75;;;;;;;;;;1024803;28;99683;-50
2021/10/06 07:18:22;;;;;;;11.00;3.40;;;;;;;;;;1023479;28;100396;-52
2021/10/06 07:18:53;;;;;;;9.05;3.08;;;;;;;;;;1024857;28;99581;-54
2021/10/06 07:19:24;;;;;;;7.80;2.72;;;;;;;;;;1027532;28;100597;-49
2021/10/06 07:19:54;;;;;;;10.48;2.38;;;;;;;;;;1024943;28;100021;-49
2021/10/06 07:20:25;;;;;;;7.07;2.65;;;;;;;;;;1023059;28;101343;-51
2021/10/06 07:20:57;;;;;;;9.27;2.75;;;;;;;;;;1024655;28;100030;-49
2021/10/06 07:21:28;;;;;;;9.18;2.88;;;;;;;;;;1023910;28;100210;-49
2021/10/06 07:21:58;;;;;;;9.25;3.30;;;;;;;;;;1029035;28;100065;-49
2021/10/06 07:22:29;;;;;;;12.05;3.17;;;;;;;;;;1027481;28;100741;-50
2021/10/06 07:23:00;;;;;;;8.27;2.83;;;;;;;;;;1028764;28;99417;-51
2021/10/06 07:23:31;;;;;;;7.75;2.60;;;;;;;;;;1027652;28;100657;-51
2021/10/06 07:24:02;;;;;;;6.35;2.75;;;;;;;;;;1029122;28;99973;-49
2021/10/06 07:24:33;;;;;;;6.22;3.17;;;;;;;;;;1027429;28;101810;-50
2021/10/06 07:25:04;;;;;;;4.72;2.42;;;;;;;;;;1028905;28;99986;-52
2021/10/06 07:25:36;;;;;;;10.63;2.50;;;;;;;;;;1027647;28;100436;-49
2021/10/06 07:26:07;;;;;;;6.93;2.78;;;;;;;;;;1028849;28;100117;-50
2021/10/06 07:26:38;;;;;;;7.78;3.15;;;;;;;;;;1023482;28;100948;-50
2021/10/06 07:27:10;;;;;;;7.15;2.50;;;;;;;;;;1024849;28;99941;-50
2021/10/06 07:27:41;;;;;;;11.45;2.63;;;;;;;;;;1023379;28;101025;-49
2021/10/06 07:28:12;;;;;;;5.07;2.25;;;;;;;;;;1025188;28;99945;-48
2021/10/06 07:28:43;;;;;;;6.22;2.67;;;;;;;;;;1027476;28;102080;-51
2021/10/06 07:29:14;;;;;;;7.10;2.85;;;;;;;;;;1028420;28;99873;-48
2021/10/06 07:29:45;;;;;;;7.38;2.63;;;;;;;;;;1026818;28;101962;-50
2021/10/06 07:30:16;;;;;;;6.15;2.97;;;;;;;;;;1028831;28;99886;-52
2021/10/06 07:30:46;;;;;;;10.10;3.20;;;;;;;;;;1023629;28;100457;-48
2021/10/06 07:31:17;;;;;;;11.40;2.83;;;;;;;;;;1024815;28;100112;-49
2021/10/06 07:31:48;;;;;;;6.15;2.33;;;;;;;;;;1023453;28;100870;-51
2021/10/06 07:32:19;;;;;;;9.93;2.90;;;;;;;;;;1021022;28;100021;-51
2021/10/06 07:32:50;;;;;;;6.63;2.80;;;;;;;;;;1023600;28;100344;-50
2021/10/06 07:33:21;;;;;;;7.38;2.70;;;;;;;;;;1024333;28;100135;-48
2021/10/06 07:33:52;;;;;;;6.53;3.03;;;;;;;;;;1023889;28;100820;-48
2021/10/06 07:34:23;;;;;;;6.57;2.45;;;;;;;;;;1028892;28;99938;-49
2021/10/06 07:34:53;;;;;;;7.22;2.90;;;;;;;;;;1027678;28;100479;-48
2021/10/06 07:35:24;;;;;;;9.38;2.83;;;;;;;;;;1028463;28;100079;-51
2021/10/06 07:35:55;;;;;;;7.10;2.72;;;;;;;;;;1027729;28;100714;-50
2021/10/06 07:36:26;;;;;;;8.80;2.90;;;;;;;;;;1028840;28;99913;-52
2021/10/06 07:36:56;;;;;;;9.55;2.85;;;;;;;;;;1027789;28;100392;-52
2021/10/06 07:37:27;;;;;;;10.90;3.20;;;;;;;;;;1028273;28;100552;-50
2021/10/06 07:37:58;;;;;;;10.13;3.00;;;;;;;;;;1023595;28;100675;-48
2021/10/06 07:38:29;;;;;;;16.42;3.40;;;;;;;;;;1024413;28;99999;-49
2021/10/06 07:39:00;;;;;;;9.35;3.20;;;;;;;;;;1023703;28;100533;-48
2021/10/06 07:39:31;;;;;;;7.25;2.60;;;;;;;;;;1024852;28;100334;-50
2021/10/06 07:40:04;;;;;;;9.63;3.05;;;;;;;;;;1031771;28;100495;-51
2021/10/06 07:40:35;;;;;;;8.20;2.63;;;;;;;;;;1029183;28;99997;-48
2021/10/06 07:41:06;;;;;;;10.32;3.15;;;;;;;;;;1027905;28;100505;-53
2021/10/06 07:41:37;;;;;;;4.72;2.60;;;;;;;;;;1028899;28;100057;-49
2021/10/06 07:42:08;;;;;;;6.50;2.60;;;;;;;;;;1028027;28;100448;-53
2021/10/06 07:42:39;;;;;;;8.18;2.97;;;;;;;;;;1028654;28;100151;-49
2021/10/06 07:43:10;;;;;;;7.57;2.67;;;;;;;;;;1028234;28;100399;-49
2021/10/06 07:43:42;;;;;;;7.53;3.28;;;;;;;;;;1036955;28;100160;-51
2021/10/06 07:44:14;;;;;;;10.20;3.38;;;;;;;;;;1036232;28;100413;-51
2021/10/06 07:44:46;;;;;;;7.22;3.05;;;;;;;;;;1037201;28;100184;-52
2021/10/06 07:45:17;;;;;;;6.70;2.70;;;;;;;;;;1031313;28;100855;-49
2021/10/06 07:45:47;;;;;;;10.68;3.08;;;;;;;;;;1028954;28;100096;-49
2021/10/06 07:46:18;;;;;;;8.82;3.05;;;;;;;;;;1027310;28;101574;-51
2021/10/06 07:46:49;;;;;;;4.53;2.40;;;;;;;;;;1028818;28;100084;-53
2021/10/06 07:47:20;;;;;;;8.45;3.00;;;;;;;;;;1028273;28;100531;-50
2021/10/06 07:47:51;;;;;;;9.88;2.72;;;;;;;;;;1028798;28;100201;-49
2021/10/06 07:48:22;;;;;;;5.38;2.80;;;;;;;;;;1028159;28;100464;-49
2021/10/06 07:48:53;;;;;;;6.47;2.95;;;;;;;;;;1029163;28;99869;-52
2021/10/06 07:49:23;;;;;;;11.52;2.95;;;;;;;;;;1027935;28;101168;-52
2021/10/06 07:49:54;;;;;;;5.50;2.42;;;;;;;;;;1029152;28;100176;-49
2021/10/06 07:50:25;;;;;;;5.47;2.60;;;;;;;;;;1027558;28;103212;-50
2021/10/06 07:50:57;;;;;;;6.20;2.40;;;;;;;;;;1032520;28;99932;-52
2021/10/06 07:51:27;;;;;;;9.68;2.67;;;;;;;;;;1031575;28;100522;-53
2021/10/06 07:51:59;;;;;;;8.25;3.13;;;;;;;;;;1032412;28;100388;-51
2021/10/06 07:52:30;;;;;;;7.50;2.75;;;;;;;;;;1031509;28;100762;-49
2021/10/06 07:53:01;;;;;;;5.75;2.45;;;;;;;;;;1029164;28;100118;-50
2021/10/06 07:53:51;;;;;;;7.90;2.88;;;;;;;;;;1027803;28;100408;-51
2021/10/06 07:54:22;;;;;;;11.82;3.05;;;;;;;;;;1029042;28;99897;-50
2021/10/06 07:54:53;;;;;;;9.35;2.88;;;;;;;;;;1019365;28;101391;-49
2021/10/06 07:55:24;;;;;;;8.20;2.95;;;;;;;;;;1023843;28;99907;-50
2021/10/06 07:55:54;;;;;;;8.07;3.45;;;;;;;;;;1023296;28;101615;-49
2021/10/06 07:56:25;;;;;;;5.95;2.60;;;;;;;;;;1025303;28;99287;-53
2021/10/06 07:56:56;;;;;;;7.03;2.60;;;;;;;;;;1027800;28;100392;-51
2021/10/06 07:57:27;;;;;;;4.32;2.40;;;;;;;;;;1028867;28;100060;-49
2021/10/06 07:58:02;;;;;;;8.93;2.55;;;;;;;;;;1027379;28;100794;-51
2021/10/06 07:58:35;;;;;;;6.47;2.53;;;;;;;;;;1025749;28;99765;-51
2021/10/06 07:59:05;;;;;;;5.53;2.75;;;;;;;;;;1027851;28;100452;-48
2021/10/06 07:59:36;;;;;;;8.18;2.67;;;;;;;;;;1028589;28;100126;-49
2021/10/06 08:00:08;;;;;;;8.10;2.70;;;;;;;;;;1031703;28;100371;-52
2021/10/06 08:00:42;;;;;;;4.97;2.90;;;;;;;;;;1032647;28;99996;-53
2021/10/06 08:01:13;;;;;;;6.95;2.72;;;;;;;;;;1031668;28;101273;-50
2021/10/06 08:01:44;;;;;;;6.60;3.08;;;;;;;;;;1032022;28;100061;-53
2021/10/06 08:02:15;;;;;;;6.55;2.75;;;;;;;;;;1027631;28;100384;-53
2021/10/06 08:02:46;;;;;;;5.32;2.33;;;;;;;;;;1029211;28;99849;-50
2021/10/06 08:03:16;;;;;;;7.05;2.90;;;;;;;;;;1027769;28;101466;-51
2021/10/06 08:03:47;;;;;;;6.45;2.47;;;;;;;;;;1037003;28;99899;-51
2021/10/06 08:04:19;;;;;;;6.55;2.63;;;;;;;;;;1035540;28;102906;-52
2021/10/06 08:04:49;;;;;;;6.15;3.03;;;;;;;;;;1037098;28;99751;-51
2021/10/06 08:05:20;;;;;;;11.75;2.40;;;;;;;;;;1035353;28;100748;-53
2021/10/06 08:05:51;;;;;;;8.15;2.50;;;;;;;;;;1029136;28;100026;-49
2021/10/06 08:06:22;;;;;;;4.43;2.50;;;;;;;;;;1022964;28;103121;-52
2021/10/06 08:06:53;;;;;;;9.52;2.38;;;;;;;;;;1024974;28;100015;-50
2021/10/06 08:07:25;;;;;;;8.40;2.45;;;;;;;;;;1023623;28;100544;-48
2021/10/06 08:07:55;;;;;;;5.53;2.85;;;;;;;;;;1025344;28;99922;-52
2021/10/06 08:08:26;;;;;;;6.68;2.40;;;;;;;;;;1027697;28;100734;-51
2021/10/06 08:08:57;;;;;;;4.60;2.60;;;;;;;;;;1029345;28;100008;-52
2021/10/06 08:09:28;;;;;;;5.07;2.42;;;;;;;;;;1028070;28;100378;-49
2021/10/06 08:09:59;;;;;;;7.68;2.92;;;;;;;;;;1028888;28;100027;-52